Venez Explorer Les Airs Avec Nous!

Que ce soit pour un vol de découverte, pour apprendre l’arts du pilotage ou pour voyager, venez nous rejoindre.

Information en heures locale pour LFDL
21 September 2019

Metar
LFBI 211430Z AUTO 14007KT 110V170 CAVOK 28/14 Q1009 TEMPO 18015G25KT 4000 -TSRA BKN060CB

Lever du soleil aéronautique : 07:15

Lever du soleil : 07:45

Coucher du soleil : 19:59

Coucher du soleil aéronautique : 20:29

Actualité

Bienvenue à tous, l' Aéroclub Loudunais vous accueille sur son nouveau site internet.

Newsletter Sign Up

Praesent libero sed cursus anted dapibus diam
Fermer le menu